createdAt,value
2022-10-31T00:00:58.377Z,71.39
2022-10-31T00:06:02.737Z,71.44
2022-10-31T00:11:04.719Z,71.53
2022-10-31T00:16:06.567Z,71.14
2022-10-31T00:21:08.412Z,71.34
2022-10-31T00:26:10.214Z,71.36
2022-10-31T00:31:13.243Z,71.47
2022-10-31T00:36:17.775Z,71.24
2022-10-31T00:41:19.498Z,71.40
2022-10-31T00:46:21.205Z,70.88
2022-10-31T00:51:22.935Z,70.91
2022-10-31T00:56:24.637Z,71.04
2022-10-31T01:01:26.360Z,70.96
2022-10-31T01:06:28.096Z,70.58
2022-10-31T01:11:29.761Z,71.02
2022-10-31T01:16:31.428Z,71.08
2022-10-31T01:21:33.531Z,71.17
2022-10-31T01:26:35.236Z,70.93
2022-10-31T01:31:40.045Z,70.83
2022-10-31T01:36:42.259Z,70.80
2022-10-31T01:41:46.701Z,70.57
2022-10-31T01:47:13.876Z,70.49
2022-10-31T01:52:27.756Z,69.96
2022-10-31T01:57:31.898Z,70.34
2022-10-31T02:03:07.563Z,70.09
2022-10-31T02:08:24.246Z,70.61
2022-10-31T02:13:27.033Z,70.11
2022-10-31T02:18:31.410Z,70.36
2022-10-31T02:24:10.413Z,69.83
2022-10-31T02:29:24.112Z,70.14
2022-10-31T02:34:38.896Z,70.14
2022-10-31T02:40:06.162Z,70.17
2022-10-31T02:45:28.735Z,69.96
2022-10-31T02:50:36.231Z,69.92
2022-10-31T02:55:37.830Z,69.73
2022-10-31T03:00:58.739Z,69.87
2022-10-31T03:06:15.565Z,69.95
2022-10-31T03:11:23.143Z,70.00
2022-10-31T03:16:46.517Z,70.06
2022-10-31T03:22:03.381Z,70.52
2022-10-31T03:27:08.761Z,70.24
2022-10-31T03:32:18.224Z,70.09
2022-10-31T03:37:21.809Z,70.52
2022-10-31T03:42:26.597Z,70.16
2022-10-31T03:47:28.577Z,70.13
2022-10-31T03:52:40.423Z,69.98
2022-10-31T03:58:10.281Z,70.25
2022-10-31T04:03:17.769Z,70.36
2022-10-31T04:08:24.146Z,70.49
2022-10-31T04:13:30.208Z,70.83
2022-10-31T04:18:31.867Z,70.86
2022-10-31T04:23:35.188Z,70.70
2022-10-31T04:28:36.879Z,70.63
2022-10-31T04:33:39.359Z,70.47
2022-10-31T04:38:41.123Z,70.26
2022-10-31T04:43:42.778Z,70.16
2022-10-31T04:48:44.410Z,69.84
2022-10-31T04:53:46.067Z,69.91
2022-10-31T04:58:47.744Z,69.79
2022-10-31T05:03:49.419Z,69.78
2022-10-31T05:08:51.687Z,69.66
2022-10-31T05:13:53.393Z,69.66
2022-10-31T05:18:55.061Z,69.55
2022-10-31T05:23:56.728Z,69.58
2022-10-31T05:28:58.404Z,69.76
2022-10-31T05:34:00.273Z,69.93
2022-10-31T05:39:01.972Z,70.37
2022-10-31T05:44:03.688Z,70.60
2022-10-31T05:49:05.365Z,70.79
2022-10-31T05:54:16.341Z,70.48
2022-10-31T05:59:18.022Z,70.72
2022-10-31T06:04:19.756Z,70.86
2022-10-31T06:09:21.443Z,70.93
2022-10-31T06:14:23.083Z,70.78
2022-10-31T06:19:24.768Z,70.85
2022-10-31T06:24:26.508Z,70.81
2022-10-31T06:29:28.165Z,70.65
2022-10-31T06:34:29.826Z,70.72
2022-10-31T06:39:31.504Z,70.50
2022-10-31T06:44:33.722Z,70.60
2022-10-31T06:49:35.367Z,70.78
2022-10-31T06:54:36.986Z,70.80
2022-10-31T06:59:38.633Z,70.71
2022-10-31T07:04:40.298Z,70.50
2022-10-31T07:09:42.199Z,70.47
2022-10-31T07:14:43.837Z,69.78
2022-10-31T07:19:45.500Z,69.79
2022-10-31T07:24:47.100Z,70.04
2022-10-31T07:29:48.789Z,70.00
2022-10-31T07:34:50.448Z,70.12
2022-10-31T07:39:52.102Z,69.66
2022-10-31T07:44:56.754Z,69.83
2022-10-31T07:49:59.434Z,69.25
2022-10-31T07:55:01.251Z,69.76
2022-10-31T08:00:04.513Z,69.22
2022-10-31T08:05:06.572Z,69.15
2022-10-31T08:10:08.325Z,69.21
2022-10-31T08:15:10.385Z,68.99
2022-10-31T08:20:12.046Z,68.92
2022-10-31T08:25:13.790Z,68.92
2022-10-31T08:30:15.443Z,68.96
2022-10-31T08:35:17.114Z,68.76
2022-10-31T08:40:18.788Z,68.02
2022-10-31T08:45:20.455Z,67.95
2022-10-31T08:50:22.104Z,67.15
2022-10-31T08:55:23.794Z,67.32
2022-10-31T09:00:26.339Z,67.63
2022-10-31T09:05:28.847Z,67.19
2022-10-31T09:10:57.007Z,66.37
2022-10-31T09:15:59.745Z,67.29
2022-10-31T09:21:01.970Z,66.97
2022-10-31T09:26:03.738Z,67.00
2022-10-31T09:31:05.384Z,66.30
2022-10-31T09:36:07.100Z,66.93
2022-10-31T09:41:25.203Z,66.99
2022-10-31T09:47:06.190Z,66.14
2022-10-31T09:52:39.479Z,66.31
2022-10-31T09:57:42.834Z,66.28
2022-10-31T10:03:29.113Z,65.68
2022-10-31T10:08:34.332Z,66.09
2022-10-31T10:13:57.645Z,65.55
2022-10-31T10:19:21.067Z,65.61
2022-10-31T10:24:51.783Z,64.78
2022-10-31T10:30:08.720Z,65.06
2022-10-31T10:35:22.514Z,65.41
2022-10-31T10:40:29.358Z,65.09
2022-10-31T10:45:56.671Z,65.34
2022-10-31T10:51:04.847Z,64.60
2022-10-31T10:56:28.420Z,65.21
2022-10-31T11:01:32.748Z,65.11
2022-10-31T11:06:34.520Z,64.40
2022-10-31T11:11:39.762Z,64.55
2022-10-31T11:16:46.819Z,64.25
2022-10-31T11:21:54.173Z,63.47
2022-10-31T11:27:23.769Z,63.33
2022-10-31T11:32:28.579Z,63.56
2022-10-31T11:37:36.282Z,63.81
2022-10-31T11:42:52.657Z,63.26
2022-10-31T11:47:59.787Z,63.08
2022-10-31T11:53:36.353Z,62.49
2022-10-31T11:58:58.771Z,62.93
2022-10-31T12:04:08.230Z,62.55
2022-10-31T12:09:25.165Z,61.72
2022-10-31T12:14:58.296Z,61.72
2022-10-31T12:20:44.211Z,62.19
2022-10-31T12:26:07.395Z,61.82
2022-10-31T12:31:32.676Z,60.51
2022-10-31T12:36:47.418Z,61.87
2022-10-31T12:42:28.670Z,61.39
2022-10-31T12:48:08.217Z,61.35
2022-10-31T12:53:38.225Z,61.12
2022-10-31T12:58:54.159Z,60.19
2022-10-31T13:04:14.118Z,60.66
2022-10-31T13:09:21.581Z,60.45
2022-10-31T13:14:43.103Z,60.42
2022-10-31T13:19:51.187Z,60.86
2022-10-31T13:25:12.249Z,60.56
2022-10-31T13:30:17.632Z,60.35
2022-10-31T13:35:29.551Z,60.16
2022-10-31T13:41:01.440Z,60.27
2022-10-31T13:46:49.877Z,60.46
2022-10-31T13:51:55.734Z,60.64
2022-10-31T13:56:58.599Z,60.17
2022-10-31T14:02:27.273Z,60.08
2022-10-31T14:07:33.641Z,61.11
2022-10-31T14:12:42.998Z,60.73
2022-10-31T14:18:05.162Z,60.82
2022-10-31T14:23:34.830Z,61.12
2022-10-31T14:28:37.774Z,61.30
2022-10-31T14:33:43.881Z,61.67
2022-10-31T14:39:06.452Z,62.15
2022-10-31T14:44:35.236Z,62.01
2022-10-31T14:49:58.568Z,62.66
2022-10-31T14:55:06.400Z,62.84
2022-10-31T15:00:16.431Z,63.12
2022-10-31T15:05:19.273Z,63.16
2022-10-31T15:10:37.476Z,63.61
2022-10-31T15:15:46.961Z,63.29
2022-10-31T15:21:01.557Z,64.19
2022-10-31T15:26:06.541Z,64.42
2022-10-31T15:31:32.005Z,64.88
2022-10-31T15:36:38.475Z,65.07
2022-10-31T15:41:54.808Z,65.60
2022-10-31T15:47:07.645Z,66.12
2022-10-31T15:52:24.608Z,66.98
2022-10-31T15:57:27.345Z,67.83
2022-10-31T16:02:31.161Z,68.17
2022-10-31T16:07:33.910Z,68.34
2022-10-31T16:12:43.635Z,68.80
2022-10-31T16:17:48.503Z,68.97
2022-10-31T16:22:52.450Z,68.72
2022-10-31T16:28:01.389Z,69.24
2022-10-31T16:33:35.162Z,69.44
2022-10-31T16:38:45.946Z,69.31
2022-10-31T16:44:03.180Z,69.45
2022-10-31T16:49:04.863Z,69.41
2022-10-31T16:54:07.652Z,69.41
2022-10-31T16:59:16.043Z,69.96
2022-10-31T17:04:19.252Z,70.32
2022-10-31T17:09:21.013Z,70.08
2022-10-31T17:14:25.187Z,70.33
2022-10-31T17:19:28.007Z,70.09
2022-10-31T17:24:33.716Z,69.99
2022-10-31T17:29:35.518Z,70.07
2022-10-31T17:34:43.304Z,70.04
2022-10-31T17:39:45.983Z,70.07
2022-10-31T17:44:47.742Z,70.39
2022-10-31T17:49:57.478Z,70.62
2022-10-31T17:55:07.936Z,70.71
2022-10-31T18:00:15.723Z,71.00
2022-10-31T18:05:18.685Z,71.29
2022-10-31T18:10:21.766Z,71.35
2022-10-31T18:15:24.438Z,71.13
2022-10-31T18:20:28.286Z,71.42
2022-10-31T18:25:32.331Z,71.64
2022-10-31T18:30:40.510Z,71.94
2022-10-31T18:35:45.406Z,72.14
2022-10-31T18:40:49.247Z,71.96
2022-10-31T18:45:53.693Z,71.65
2022-10-31T18:56:13.011Z,72.37
2022-10-31T19:01:21.996Z,72.45
2022-10-31T19:06:25.057Z,72.45
2022-10-31T19:11:27.790Z,72.92
2022-10-31T19:16:42.257Z,72.71
2022-10-31T19:22:02.177Z,73.27
2022-10-31T19:27:04.236Z,72.56
2022-10-31T19:32:14.008Z,72.99
2022-10-31T19:37:15.718Z,72.75
2022-10-31T19:42:35.658Z,73.01
2022-10-31T19:47:45.461Z,73.20
2022-10-31T19:52:48.214Z,72.64
2022-10-31T19:58:11.727Z,72.53
2022-10-31T20:03:12.211Z,72.53
2022-10-31T20:08:21.802Z,72.66
2022-10-31T20:13:23.709Z,72.33
2022-10-31T20:18:25.965Z,72.38
2022-10-31T20:23:28.017Z,72.16
2022-10-31T20:28:30.687Z,71.92
2022-10-31T20:33:32.326Z,71.83
2022-10-31T20:38:34.852Z,72.02
2022-10-31T20:43:37.547Z,72.00
2022-10-31T20:48:39.315Z,71.71
2022-10-31T20:53:40.969Z,71.89
2022-10-31T20:58:44.400Z,71.83
2022-10-31T21:03:46.900Z,71.91
2022-10-31T21:08:48.846Z,71.54
2022-10-31T21:13:51.506Z,71.78
2022-10-31T21:18:53.810Z,72.21
2022-10-31T21:23:57.838Z,72.23
2022-10-31T21:29:00.025Z,72.19
2022-10-31T21:34:01.848Z,71.73
2022-10-31T21:39:05.234Z,71.40
2022-10-31T21:44:06.957Z,71.28
2022-10-31T21:49:10.692Z,70.98
2022-10-31T21:54:28.917Z,71.17
2022-10-31T21:59:30.783Z,71.13
2022-10-31T22:04:33.544Z,71.08
2022-10-31T22:09:35.340Z,71.46
2022-10-31T22:14:37.031Z,71.34
2022-10-31T22:19:38.753Z,71.32
2022-10-31T22:24:40.459Z,71.54
2022-10-31T22:29:45.176Z,71.42
2022-10-31T22:34:46.817Z,71.25
2022-10-31T22:39:48.459Z,71.21
2022-10-31T22:44:50.118Z,71.10
2022-10-31T22:49:51.763Z,70.83
2022-10-31T22:54:56.898Z,71.08
2022-10-31T23:00:00.935Z,71.27
2022-10-31T23:05:02.620Z,71.40
2022-10-31T23:10:04.635Z,71.74
2022-10-31T23:15:06.912Z,71.39
2022-10-31T23:20:08.945Z,71.63
2022-10-31T23:25:10.754Z,71.55
2022-10-31T23:30:12.447Z,71.36
2022-10-31T23:35:14.097Z,71.37
2022-10-31T23:40:15.827Z,71.35
2022-10-31T23:45:17.478Z,71.34
2022-10-31T23:50:19.130Z,71.10
2022-10-31T23:55:20.786Z,70.82
